Time;durP1;ratioP1;P1;durP2;ratioP2;P2;SDS_P1;SDS_P2;PMS_P1;PMS_P2;Temp;Humidity;BMP_temperature;BMP_pressure;BME280_temperature;BME280_humidity;BME280_pressure;Samples;Min_cycle;Max_cycle;Signal;HPM_P1;HPM_P2
2023/08/20 00:00:18;;;;;;;13.80;8.10;;;;;;;20.06;100.00;101284.69;109788;1245;73700;-77
2023/08/20 00:03:12;;;;;;;16.90;8.40;;;;;;;19.99;100.00;101285.26;109748;1243;61992;-77
2023/08/20 00:05:41;;;;;;;14.00;9.00;;;;;;;19.97;100.00;101286.76;109858;1241;60941;-77
2023/08/20 00:08:10;;;;;;;13.80;8.40;;;;;;;19.92;100.00;101289.23;109792;1241;64095;-76
2023/08/20 00:10:39;;;;;;;11.80;8.70;;;;;;;19.84;100.00;101286.97;109805;1241;70024;-76
2023/08/20 00:13:07;;;;;;;18.80;9.30;;;;;;;19.82;100.00;101286.29;109752;1241;70137;-76
2023/08/20 00:15:37;;;;;;;13.90;8.70;;;;;;;19.84;100.00;101289.41;109806;1241;62874;-77
2023/08/20 00:18:06;;;;;;;13.10;8.00;;;;;;;19.85;100.00;101291.25;109824;1242;62555;-76
2023/08/20 00:20:35;;;;;;;14.80;7.90;;;;;;;19.82;100.00;101287.33;109841;1241;58219;-76
2023/08/20 00:23:05;;;;;;;14.50;8.90;;;;;;;19.81;100.00;101281.59;109803;1241;74267;-76
2023/08/20 00:25:34;;;;;;;15.50;9.40;;;;;;;19.78;100.00;101278.88;109810;1241;71886;-77
2023/08/20 00:28:03;;;;;;;12.20;8.50;;;;;;;19.78;100.00;101274.80;109796;1242;68938;-76
2023/08/20 00:30:32;;;;;;;13.80;9.20;;;;;;;19.80;100.00;101273.41;109834;1243;63653;-77
2023/08/20 00:33:01;;;;;;;9.70;7.80;;;;;;;19.87;100.00;101275.35;109806;1242;62715;-77
2023/08/20 00:35:30;;;;;;;11.90;8.50;;;;;;;19.81;100.00;101272.06;109648;1241;57678;-77
2023/08/20 00:37:58;;;;;;;12.10;7.60;;;;;;;19.71;100.00;101265.73;109636;1241;74429;-77
2023/08/20 00:40:28;;;;;;;15.90;8.40;;;;;;;19.61;100.00;101264.75;109760;1241;72007;-77
2023/08/20 00:42:56;;;;;;;13.70;8.60;;;;;;;19.50;100.00;101266.41;109845;1241;70680;-77
2023/08/20 00:45:27;;;;;;;13.00;9.00;;;;;;;19.43;100.00;101268.02;109826;1242;63006;-77
2023/08/20 00:47:56;;;;;;;13.30;8.60;;;;;;;19.36;100.00;101271.14;109646;1244;62081;-77
2023/08/20 00:50:27;;;;;;;13.30;8.60;;;;;;;19.32;100.00;101271.73;109608;1245;58193;-76
2023/08/20 00:52:56;;;;;;;11.30;8.50;;;;;;;19.30;100.00;101270.31;109610;1245;64019;-77
2023/08/20 00:55:25;;;;;;;13.90;9.00;;;;;;;19.42;100.00;101275.49;109618;1245;61561;-77
2023/08/20 00:57:54;;;;;;;12.80;8.40;;;;;;;19.46;100.00;101277.21;109760;1245;59761;-77
2023/08/20 01:00:24;;;;;;;13.00;9.10;;;;;;;19.42;100.00;101276.53;109788;1241;73675;-77
2023/08/20 01:02:55;;;;;;;16.90;9.80;;;;;;;19.45;100.00;101272.21;109652;1244;64291;-76
2023/08/20 01:05:24;;;;;;;11.80;8.50;;;;;;;19.47;100.00;101266.86;109693;1241;61051;-76
2023/08/20 01:08:16;;;;;;;14.20;9.10;;;;;;;19.38;100.00;101266.17;109690;1240;73849;-77
2023/08/20 01:11:18;;;;;;;13.90;9.20;;;;;;;19.29;100.00;101266.41;109635;1240;72323;-77
2023/08/20 01:13:46;;;;;;;12.50;8.60;;;;;;;19.31;100.00;101265.18;109669;1241;69819;-76
2023/08/20 01:16:15;;;;;;;16.10;9.50;;;;;;;19.38;100.00;101263.35;109722;1242;62926;-76
2023/08/20 01:18:44;;;;;;;14.00;9.20;;;;;;;19.43;100.00;101263.16;109612;1244;58371;-77
2023/08/20 01:21:38;;;;;;;15.20;9.30;;;;;;;19.39;100.00;101260.45;109442;1240;61100;-77
2023/08/20 01:24:29;;;;;;;14.80;8.60;;;;;;;19.30;100.00;101257.04;109465;1240;74800;-77
2023/08/20 01:27:36;;;;;;;13.00;8.60;;;;;;;19.24;100.00;101259.94;109518;1245;61435;-77
2023/08/20 01:30:06;;;;;;;15.60;9.20;;;;;;;19.20;100.00;101264.99;109698;1241;68990;-77
2023/08/20 01:32:36;;;;;;;11.80;8.90;;;;;;;19.29;100.00;101262.83;109549;1245;63423;-77
2023/08/20 01:35:06;;;;;;;12.40;8.40;;;;;;;19.23;100.00;101259.20;109673;1245;61821;-76
2023/08/20 01:37:35;;;;;;;20.60;10.60;;;;;;;19.18;100.00;101263.30;109597;1245;57682;-77
2023/08/20 01:40:09;;;;;;;17.30;10.00;;;;;;;19.08;100.00;101264.45;109807;1241;63549;-75
2023/08/20 01:42:39;;;;;;;14.20;9.90;;;;;;;18.96;100.00;101266.33;109715;1241;72016;-76
2023/08/20 01:45:09;;;;;;;16.90;10.50;;;;;;;18.90;100.00;101270.66;109862;1242;61258;-77
2023/08/20 01:47:38;;;;;;;18.50;10.20;;;;;;;18.84;100.00;101270.21;109785;1240;73593;-77
2023/08/20 01:50:07;;;;;;;17.60;11.70;;;;;;;18.87;100.00;101277.80;109832;1242;62262;-77
2023/08/20 01:52:36;;;;;;;20.70;11.70;;;;;;;19.02;100.00;101271.20;109764;1240;60712;-77
2023/08/20 01:55:05;;;;;;;20.10;13.20;;;;;;;19.11;100.00;101269.49;109829;1242;74351;-77
2023/08/20 01:57:34;;;;;;;21.60;13.20;;;;;;;19.02;100.00;101269.06;109742;1244;61901;-76
2023/08/20 02:00:08;;;;;;;17.60;12.10;;;;;;;18.94;100.00;101270.23;109661;1241;70235;-76
2023/08/20 02:02:45;;;;;;;15.90;11.60;;;;;;;18.84;100.00;101271.58;109719;1242;63782;-77
2023/08/20 02:05:14;;;;;;;17.80;9.80;;;;;;;18.73;100.00;101272.64;109676;1243;62993;-77
2023/08/20 02:07:43;;;;;;;14.90;9.20;;;;;;;18.66;100.00;101274.05;109819;1241;60522;-76
2023/08/20 02:10:11;;;;;;;14.50;10.70;;;;;;;18.55;100.00;101274.26;109738;1244;74431;-77
2023/08/20 02:12:41;;;;;;;13.10;9.40;;;;;;;18.47;100.00;101271.48;109815;1242;61871;-77
2023/08/20 02:15:11;;;;;;;12.80;9.40;;;;;;;18.43;100.00;101270.95;109689;1241;70486;-77
2023/08/20 02:17:40;;;;;;;14.50;9.60;;;;;;;18.40;100.00;101272.27;109794;1242;74685;-76
2023/08/20 02:20:10;;;;;;;18.20;9.80;;;;;;;18.42;100.00;101272.82;109742;1241;58221;-77
2023/08/20 02:22:39;;;;;;;20.00;9.80;;;;;;;18.42;100.00;101273.05;109714;1240;60424;-77
2023/08/20 02:25:08;;;;;;;16.90;10.10;;;;;;;18.40;100.00;101277.77;109774;1244;74527;-77
2023/08/20 02:27:36;;;;;;;13.50;9.30;;;;;;;18.39;100.00;101275.20;109720;1241;72113;-78
2023/08/20 02:30:06;;;;;;;13.80;9.70;;;;;;;18.38;100.00;101280.65;109723;1241;69962;-77
2023/08/20 02:32:36;;;;;;;16.30;9.50;;;;;;;18.47;100.00;101284.82;109712;1244;63698;-77
2023/08/20 02:35:05;;;;;;;14.60;9.80;;;;;;;18.56;100.00;101283.50;109733;1242;58332;-76
2023/08/20 02:37:34;;;;;;;14.40;10.00;;;;;;;18.61;100.00;101285.86;109566;1245;57768;-77
2023/08/20 02:40:04;;;;;;;14.20;9.70;;;;;;;18.66;100.00;101290.77;109586;1240;73531;-77
2023/08/20 02:42:34;;;;;;;13.90;9.60;;;;;;;18.65;100.00;101293.23;109777;1241;72972;-77
2023/08/20 02:45:03;;;;;;;13.30;9.30;;;;;;;18.54;100.00;101292.11;109721;1242;70407;-76
2023/08/20 02:47:32;;;;;;;12.10;9.80;;;;;;;18.55;100.00;101292.35;109599;1241;72111;-76
2023/08/20 02:50:01;;;;;;;18.70;10.00;;;;;;;18.58;100.00;101297.90;109711;1241;61569;-77
2023/08/20 02:52:32;;;;;;;18.10;10.60;;;;;;;18.54;100.00;101295.17;109715;1241;61317;-77
2023/08/20 02:55:03;;;;;;;12.90;9.00;;;;;;;18.51;100.00;101300.00;109733;1241;64143;-77
2023/08/20 02:57:31;;;;;;;13.40;10.50;;;;;;;18.55;100.00;101297.70;109752;1242;71242;-77
2023/08/20 03:00:02;;;;;;;14.30;10.20;;;;;;;18.70;100.00;101295.68;109696;1241;59667;-77
2023/08/20 03:02:31;;;;;;;14.90;10.30;;;;;;;18.81;100.00;101295.23;109674;1241;73099;-77
2023/08/20 03:04:59;;;;;;;10.80;9.10;;;;;;;18.70;100.00;101298.02;109653;1244;63253;-78
2023/08/20 03:07:28;;;;;;;12.50;9.90;;;;;;;18.60;100.00;101298.06;109667;1241;60948;-78
2023/08/20 03:09:57;;;;;;;15.30;10.10;;;;;;;18.47;100.00;101294.15;109728;1241;64516;-77
2023/08/20 03:12:26;;;;;;;15.50;9.90;;;;;;;18.36;100.00;101294.88;109692;1240;71111;-77
2023/08/20 03:14:55;;;;;;;14.00;10.00;;;;;;;18.29;100.00;101294.17;109786;1241;70781;-77
2023/08/20 03:17:23;;;;;;;17.90;10.00;;;;;;;18.26;100.00;101296.88;109756;1240;73034;-77
2023/08/20 03:20:00;;;;;;;15.60;9.80;;;;;;;18.26;100.00;101297.43;109833;1241;58298;-77
2023/08/20 03:22:29;;;;;;;14.20;10.00;;;;;;;18.27;100.00;101298.94;109712;1241;58319;-77
2023/08/20 03:24:58;;;;;;;15.80;9.70;;;;;;;18.26;100.00;101300.50;109942;1241;62936;-77
2023/08/20 03:27:27;;;;;;;15.10;10.00;;;;;;;18.22;100.00;101299.05;109761;1240;71456;-77
2023/08/20 03:29:55;;;;;;;14.20;10.00;;;;;;;18.22;100.00;101299.80;109762;1241;71018;-77
2023/08/20 03:32:24;;;;;;;13.80;9.50;;;;;;;18.19;100.00;101301.47;109757;1241;74287;-77
2023/08/20 03:34:53;;;;;;;17.00;10.10;;;;;;;18.17;100.00;101301.67;109809;1241;58353;-76
2023/08/20 03:37:23;;;;;;;14.70;10.10;;;;;;;18.13;100.00;101297.61;109664;1241;60462;-76
2023/08/20 03:39:52;;;;;;;19.80;10.80;;;;;;;18.10;100.00;101301.68;109590;1241;73746;-77
2023/08/20 03:42:21;;;;;;;17.00;10.70;;;;;;;18.10;100.00;101300.20;109607;1241;61385;-77
2023/08/20 03:44:49;;;;;;;15.30;10.80;;;;;;;18.19;100.00;101301.29;109804;1242;70184;-77
2023/08/20 03:47:20;;;;;;;18.30;10.40;;;;;;;18.20;100.00;101293.98;109774;1241;64896;-77
2023/08/20 03:49:49;;;;;;;15.40;10.50;;;;;;;18.32;100.00;101300.27;109621;1244;61888;-77
2023/08/20 03:52:17;;;;;;;15.70;10.30;;;;;;;18.38;100.00;101299.63;109687;1241;60762;-76
2023/08/20 03:54:46;;;;;;;15.10;9.80;;;;;;;18.38;100.00;101302.98;109827;1241;63350;-77
2023/08/20 03:57:16;;;;;;;14.80;10.40;;;;;;;18.41;100.00;101303.80;109677;1241;60900;-77
2023/08/20 03:59:45;;;;;;;14.70;10.70;;;;;;;18.46;100.00;101304.71;109679;1241;68688;-77
2023/08/20 04:02:15;;;;;;;14.30;10.70;;;;;;;18.58;100.00;101300.02;109527;1241;62855;-78
2023/08/20 04:04:44;;;;;;;13.70;10.40;;;;;;;18.71;100.00;101298.06;109583;1242;58369;-78
2023/08/20 04:07:13;;;;;;;21.10;12.30;;;;;;;18.82;100.00;101300.90;109554;1241;58281;-76
2023/08/20 04:09:42;;;;;;;17.30;11.60;;;;;;;18.92;100.00;101304.54;109556;1241;63582;-77
2023/08/20 04:12:13;;;;;;;19.70;13.10;;;;;;;19.04;100.00;101302.64;109613;1241;61459;-76
2023/08/20 04:14:42;;;;;;;14.70;11.00;;;;;;;19.13;100.00;101302.09;109517;1240;59830;-77
2023/08/20 04:17:11;;;;;;;18.80;11.10;;;;;;;19.14;100.00;101302.16;109530;1240;71279;-77
2023/08/20 04:19:40;;;;;;;19.60;11.80;;;;;;;19.14;100.00;101302.86;109666;1242;58276;-77
2023/08/20 04:22:09;;;;;;;15.50;11.30;;;;;;;19.16;100.00;101305.84;109523;1241;60102;-77
2023/08/20 04:24:39;;;;;;;19.10;12.40;;;;;;;19.11;100.00;101307.00;109670;1241;73889;-77
2023/08/20 04:27:08;;;;;;;16.10;11.10;;;;;;;19.11;100.00;101306.03;109669;1244;63816;-77
2023/08/20 04:29:37;;;;;;;14.20;11.30;;;;;;;19.19;100.00;101300.27;109677;1240;60404;-76
2023/08/20 04:32:06;;;;;;;15.80;11.80;;;;;;;19.33;100.00;101302.58;109668;1241;62254;-77
2023/08/20 04:34:35;;;;;;;17.60;13.00;;;;;;;19.38;100.00;101307.89;109661;1242;58343;-76
2023/08/20 04:37:04;;;;;;;15.90;11.80;;;;;;;19.39;100.00;101303.55;109746;1240;61030;-77
2023/08/20 04:39:32;;;;;;;15.40;11.90;;;;;;;19.51;100.00;101307.09;109774;1241;73968;-77
2023/08/20 04:42:01;;;;;;;17.20;11.70;;;;;;;19.63;100.00;101307.83;109720;1240;62791;-77
2023/08/20 04:44:30;;;;;;;17.30;11.60;;;;;;;19.70;100.00;101306.58;109706;1241;59044;-77
2023/08/20 04:47:00;;;;;;;16.30;11.80;;;;;;;19.79;100.00;101310.09;109678;1241;73740;-77
2023/08/20 04:49:30;;;;;;;20.00;11.90;;;;;;;19.87;100.00;101310.38;109684;1240;62453;-77
2023/08/20 04:52:00;;;;;;;18.90;12.10;;;;;;;19.90;100.00;101313.58;109573;1240;58143;-76
2023/08/20 04:54:30;;;;;;;17.60;12.10;;;;;;;19.94;100.00;101311.17;109702;1240;73292;-77
2023/08/20 04:56:59;;;;;;;13.30;10.70;;;;;;;19.95;100.00;101308.50;109787;1240;62298;-77
2023/08/20 04:59:29;;;;;;;15.20;10.70;;;;;;;20.02;100.00;101308.04;109695;1241;59928;-77
2023/08/20 05:02:50;;;;;;;20.30;11.40;;;;;;;20.08;100.00;101308.54;109570;1241;63918;-76
2023/08/20 05:05:20;;;;;;;16.20;11.60;;;;;;;20.17;100.00;101309.90;109565;1241;62840;-78
2023/08/20 05:07:50;;;;;;;17.50;11.40;;;;;;;20.17;100.00;101302.98;109642;1241;57695;-77
2023/08/20 05:10:20;;;;;;;12.70;11.00;;;;;;;20.39;100.00;101308.30;109685;1240;73355;-77
2023/08/20 05:12:48;;;;;;;13.00;10.30;;;;;;;20.49;100.00;101307.30;109697;1241;71467;-77
2023/08/20 05:15:17;;;;;;;16.70;11.60;;;;;;;20.58;100.00;101308.33;109685;1241;69932;-77
2023/08/20 05:17:46;;;;;;;17.20;9.80;;;;;;;20.67;100.00;101308.62;109674;1241;62833;-77
2023/08/20 05:20:15;;;;;;;17.10;10.80;;;;;;;20.83;100.00;101307.43;109740;1242;58234;-76
2023/08/20 05:22:45;;;;;;;16.30;10.90;;;;;;;20.91;100.00;101313.48;109693;1241;60237;-76
2023/08/20 05:25:13;;;;;;;15.60;11.10;;;;;;;20.95;100.00;101310.16;109675;1241;74262;-77
2023/08/20 05:27:42;;;;;;;14.20;10.00;;;;;;;21.05;100.00;101309.27;109793;1241;73289;-77
2023/08/20 05:30:12;;;;;;;14.60;9.90;;;;;;;21.10;100.00;101309.26;109695;1240;59684;-77
2023/08/20 05:32:41;;;;;;;14.60;10.90;;;;;;;21.16;100.00;101313.97;109699;1241;63504;-77
2023/08/20 05:35:10;;;;;;;16.90;11.30;;;;;;;21.24;100.00;101307.63;109671;1242;60473;-77
2023/08/20 05:37:39;;;;;;;13.90;10.00;;;;;;;21.39;100.00;101310.45;109716;1241;57817;-77
2023/08/20 05:40:09;;;;;;;14.80;9.40;;;;;;;21.53;100.00;101306.38;109727;1241;63598;-78
2023/08/20 05:42:38;;;;;;;13.10;10.00;;;;;;;21.67;100.00;101307.23;109601;1240;72200;-76
2023/08/20 05:45:08;;;;;;;14.40;9.30;;;;;;;21.88;100.00;101303.40;109704;1241;71123;-77
2023/08/20 05:47:37;;;;;;;14.60;9.00;;;;;;;22.01;100.00;101304.48;109588;1245;63607;-77
2023/08/20 05:50:07;;;;;;;14.00;8.50;;;;;;;22.16;100.00;101308.25;109588;1245;58283;-77
2023/08/20 05:52:36;;;;;;;10.20;8.10;;;;;;;22.29;100.00;101307.95;109598;1244;58134;-79
2023/08/20 05:55:06;;;;;;;11.60;8.40;;;;;;;22.34;100.00;101305.78;109807;1241;73543;-77
2023/08/20 05:57:37;;;;;;;13.70;8.80;;;;;;;22.43;100.00;101305.65;109723;1241;61368;-77
2023/08/20 06:00:07;;;;;;;9.80;7.90;;;;;;;22.46;100.00;101309.40;109585;1240;70358;-77
2023/08/20 06:02:40;;;;;;;12.70;8.10;;;;;;;22.66;100.00;101309.21;109769;1242;72313;-77
2023/08/20 06:05:10;;;;;;;15.30;8.50;;;;;;;22.77;100.00;101310.29;109556;1245;57800;-78
2023/08/20 06:07:40;;;;;;;10.00;8.20;;;;;;;22.93;100.00;101306.48;109782;1241;60978;-78
2023/08/20 06:10:09;;;;;;;11.60;8.40;;;;;;;23.01;100.00;101300.03;109555;1241;74009;-77
2023/08/20 06:12:38;;;;;;;10.60;8.70;;;;;;;23.07;100.00;101297.95;109716;1243;62084;-77
2023/08/20 06:15:08;;;;;;;17.70;9.80;;;;;;;23.18;100.00;101301.10;109730;1241;70198;-77
2023/08/20 06:17:37;;;;;;;14.20;8.90;;;;;;;23.29;100.00;101300.02;109764;1241;63714;-78
2023/08/20 06:20:08;;;;;;;9.20;7.90;;;;;;;23.43;100.00;101302.51;109645;1242;60108;-77
2023/08/20 06:22:38;;;;;;;13.30;8.40;;;;;;;23.59;100.00;101304.80;109653;1241;57640;-77
2023/08/20 06:25:08;;;;;;;17.00;9.90;;;;;;;23.72;100.00;101307.33;109520;1244;62762;-77
2023/08/20 06:27:36;;;;;;;13.30;9.40;;;;;;;23.78;100.00;101302.57;109707;1240;71969;-76
2023/08/20 06:30:06;;;;;;;11.80;9.40;;;;;;;23.83;100.00;101300.63;109767;1241;71399;-77
2023/08/20 06:32:35;;;;;;;12.20;9.40;;;;;;;23.91;100.00;101300.48;109744;1241;73444;-78
2023/08/20 06:35:05;;;;;;;12.40;9.50;;;;;;;24.02;100.00;101298.20;109718;1242;58345;-78
2023/08/20 06:37:34;;;;;;;12.20;8.90;;;;;;;24.24;100.00;101299.00;109774;1240;60682;-77
2023/08/20 06:40:06;;;;;;;13.00;8.80;;;;;;;24.38;100.00;101297.46;109765;1241;63332;-77
2023/08/20 06:42:35;;;;;;;12.90;8.60;;;;;;;24.51;99.97;101298.84;109730;1244;61160;-78
2023/08/20 06:45:09;;;;;;;;;;;;;;;24.65;99.88;101296.84;109821;1241;60785;-78
2023/08/20 06:47:37;;;;;;;11.40;8.40;;;;;;;24.78;98.85;101293.73;109777;1242;74844;-77
2023/08/20 06:50:07;;;;;;;11.20;8.10;;;;;;;24.86;98.45;101290.98;109768;1242;58268;-77
2023/08/20 06:52:36;;;;;;;11.00;8.80;;;;;;;24.93;99.35;101289.89;109806;1242;58316;-78
2023/08/20 06:55:06;;;;;;;13.10;8.00;;;;;;;25.12;98.86;101289.14;109812;1241;62752;-78
2023/08/20 06:57:35;;;;;;;14.10;8.30;;;;;;;25.35;96.79;101287.04;109768;1242;61446;-78
2023/08/20 07:00:05;;;;;;;11.90;8.60;;;;;;;25.50;95.28;101285.66;109793;1240;59483;-77
2023/08/20 07:02:34;;;;;;;11.20;8.70;;;;;;;25.57;95.12;101286.34;109779;1241;63095;-78
2023/08/20 07:05:03;;;;;;;9.70;8.20;;;;;;;25.69;95.14;101286.76;109771;1241;58235;-78
2023/08/20 07:07:32;;;;;;;15.30;8.80;;;;;;;25.85;93.82;101291.36;109624;1241;57841;-78
2023/08/20 07:10:03;;;;;;;9.90;7.90;;;;;;;26.03;93.06;101290.02;109826;1242;64220;-78
2023/08/20 07:12:32;;;;;;;11.50;8.50;;;;;;;26.28;91.12;101285.52;109801;1241;71958;-79
2023/08/20 07:15:00;;;;;;;11.00;8.30;;;;;;;26.38;90.25;101284.07;109760;1241;62091;-78
2023/08/20 07:17:29;;;;;;;10.70;8.00;;;;;;;26.40;89.89;101284.52;109736;1244;63637;-78
2023/08/20 07:19:58;;;;;;;15.20;7.70;;;;;;;26.57;89.97;101285.34;109755;1242;58358;-79
2023/08/20 07:22:27;;;;;;;12.80;8.60;;;;;;;26.76;88.94;101285.47;109767;1242;58252;-77
2023/08/20 07:24:56;;;;;;;14.50;8.90;;;;;;;26.90;88.89;101280.41;109872;1241;72961;-78
2023/08/20 07:27:24;;;;;;;13.20;9.00;;;;;;;26.94;87.96;101280.42;109875;1241;72599;-77
2023/08/20 07:29:53;;;;;;;12.10;8.30;;;;;;;27.08;87.99;101275.34;109788;1241;61200;-78
2023/08/20 07:32:22;;;;;;;12.80;8.90;;;;;;;27.19;86.32;101271.02;109754;1241;63154;-79
2023/08/20 07:34:51;;;;;;;15.50;7.90;;;;;;;27.23;85.79;101273.77;109561;1242;58238;-77
2023/08/20 07:37:20;;;;;;;15.40;8.60;;;;;;;27.48;85.64;101273.13;109640;1241;61097;-78
2023/08/20 07:39:49;;;;;;;15.10;8.30;;;;;;;27.75;84.20;101269.39;109723;1243;64476;-79
2023/08/20 07:42:18;;;;;;;15.10;8.10;;;;;;;27.88;84.07;101266.23;109797;1241;60898;-76
2023/08/20 07:44:47;;;;;;;12.00;8.00;;;;;;;28.04;83.68;101265.00;109786;1242;59225;-78
2023/08/20 07:47:16;;;;;;;11.20;7.80;;;;;;;28.14;82.05;101261.58;109694;1241;73723;-79
2023/08/20 07:49:44;;;;;;;13.10;8.50;;;;;;;28.21;82.79;101263.04;109735;1241;60529;-76
2023/08/20 07:52:13;;;;;;;13.40;7.90;;;;;;;28.39;82.48;101262.22;109436;1241;317389;-77
2023/08/20 07:54:44;;;;;;;10.70;7.80;;;;;;;28.52;81.98;101257.31;109587;1245;63526;-78
2023/08/20 07:57:13;;;;;;;8.30;6.70;;;;;;;28.66;80.32;101256.41;109780;1241;71913;-78
2023/08/20 07:59:41;;;;;;;10.60;7.90;;;;;;;28.85;78.65;101252.13;109795;1241;70831;-78
2023/08/20 08:02:10;;;;;;;9.80;8.30;;;;;;;28.94;78.39;101251.27;109686;1242;62719;-77
2023/08/20 08:04:39;;;;;;;11.80;7.90;;;;;;;28.99;78.65;101248.41;109779;1241;58279;-77
2023/08/20 08:07:11;;;;;;;11.20;8.40;;;;;;;29.11;77.45;101252.09;109800;1241;57804;-78
2023/08/20 08:09:39;;;;;;;10.70;7.10;;;;;;;29.24;77.06;101245.09;109580;1241;73859;-78
2023/08/20 08:12:08;;;;;;;12.90;7.80;;;;;;;29.41;76.95;101246.99;109823;1242;61913;-78
2023/08/20 08:14:37;;;;;;;11.30;7.50;;;;;;;29.65;76.98;101243.77;109743;1242;60073;-78
2023/08/20 08:17:07;;;;;;;13.60;7.60;;;;;;;29.80;75.61;101245.23;109703;1244;62549;-78
2023/08/20 08:19:36;;;;;;;11.70;7.90;;;;;;;29.98;75.26;101247.09;109612;1244;59419;-78
2023/08/20 08:22:04;;;;;;;11.90;7.10;;;;;;;30.03;73.50;101247.29;109739;1244;61036;-78
2023/08/20 08:24:33;;;;;;;12.40;7.70;;;;;;;30.27;73.35;101246.48;109710;1242;74063;-76
2023/08/20 08:27:02;;;;;;;11.70;7.60;;;;;;;30.38;72.51;101245.47;109715;1242;62105;-78
2023/08/20 08:29:31;;;;;;;13.20;7.50;;;;;;;30.59;71.28;101242.84;109792;1241;60026;-77
2023/08/20 08:32:00;;;;;;;11.30;7.00;;;;;;;30.67;70.66;101243.44;109757;1241;73545;-77
2023/08/20 08:34:28;;;;;;;13.30;7.20;;;;;;;30.78;71.18;101238.81;109700;1244;62265;-77
2023/08/20 08:36:57;;;;;;;10.50;7.00;;;;;;;30.92;69.80;101238.09;109816;1241;58353;-77
2023/08/20 08:39:26;;;;;;;10.90;7.00;;;;;;;31.06;68.85;101235.98;109789;1240;63556;-78
2023/08/20 08:42:04;;;;;;;11.90;6.90;;;;;;;31.17;68.77;101232.74;109800;1241;62626;-78
2023/08/20 08:44:34;;;;;;;10.10;7.20;;;;;;;31.33;68.13;101230.16;109723;1241;60128;-78
2023/08/20 08:47:05;;;;;;;11.90;6.60;;;;;;;31.47;67.53;101233.92;109663;1241;62409;-77
2023/08/20 08:49:34;;;;;;;12.40;6.80;;;;;;;31.63;66.47;101233.52;109581;1245;60358;-77
2023/08/20 08:52:04;;;;;;;11.10;7.30;;;;;;;31.58;65.30;101227.08;109632;1241;61252;-77
2023/08/20 08:54:33;;;;;;;17.80;10.10;;;;;;;31.58;65.12;101224.86;109630;1241;63973;-77
2023/08/20 08:57:02;;;;;;;13.60;6.80;;;;;;;31.73;62.87;101223.14;109591;1244;60786;-78
2023/08/20 08:59:32;;;;;;;8.60;6.60;;;;;;;31.74;61.18;101224.23;109653;1241;60714;-78
2023/08/20 09:02:01;;;;;;;9.30;6.70;;;;;;;31.87;62.57;101219.23;109424;1241;73588;-78
2023/08/20 09:04:32;;;;;;;13.40;6.50;;;;;;;32.13;62.09;101215.42;109607;1242;61588;-78
2023/08/20 09:07:00;;;;;;;10.00;7.10;;;;;;;32.29;61.73;101213.39;109638;1241;57802;-78
2023/08/20 09:09:29;;;;;;;12.80;6.70;;;;;;;32.40;62.02;101208.46;109685;1241;63387;-78
2023/08/20 09:11:58;;;;;;;10.80;6.80;;;;;;;32.55;61.50;101205.11;109701;1241;61041;-78
2023/08/20 09:14:30;;;;;;;12.50;6.80;;;;;;;32.65;59.95;101201.48;109688;1241;68223;-78
2023/08/20 09:17:01;;;;;;;7.70;6.60;;;;;;;32.92;59.75;101198.80;109610;1241;63599;-77
2023/08/20 09:19:39;;;;;;;9.60;6.00;;;;;;;33.20;59.19;101198.56;109656;1242;57745;-77
2023/08/20 09:22:08;;;;;;;10.10;6.50;;;;;;;33.25;56.14;101196.30;109596;1242;60992;-78
2023/08/20 09:24:47;;;;;;;8.20;6.30;;;;;;;33.24;55.57;101196.13;109716;1241;73876;-78
2023/08/20 09:27:16;;;;;;;8.90;6.50;;;;;;;33.31;54.96;101194.29;109792;1241;63726;-79
2023/08/20 09:29:50;;;;;;;7.50;6.20;;;;;;;33.32;55.35;101190.42;109681;1241;70890;-77
2023/08/20 09:32:23;;;;;;;12.30;5.90;;;;;;;33.51;54.97;101191.80;109720;1241;73392;-78
2023/08/20 09:34:55;;;;;;;7.70;5.70;;;;;;;33.65;54.49;101191.92;109554;1243;58403;-78
2023/08/20 09:37:25;;;;;;;7.80;5.90;;;;;;;33.80;53.19;101188.24;109431;1241;60432;-78
2023/08/20 09:39:54;;;;;;;5.90;5.30;;;;;;;33.96;51.99;101189.74;109524;1240;74723;-78
2023/08/20 09:42:23;;;;;;;7.90;5.60;;;;;;;33.98;51.20;101189.33;109556;1240;62803;-78
2023/08/20 09:44:53;;;;;;;8.00;5.70;;;;;;;33.97;51.07;101191.91;109570;1240;61212;-78
2023/08/20 09:47:26;;;;;;;7.70;5.80;;;;;;;33.81;51.55;101182.89;109452;1240;62318;-78
2023/08/20 09:49:56;;;;;;;5.90;5.30;;;;;;;33.71;51.43;101188.73;109624;1241;60168;-78
2023/08/20 09:52:38;;;;;;;9.10;5.90;;;;;;;33.98;50.10;101182.77;109620;1241;60790;-78
2023/08/20 09:55:33;;;;;;;10.30;6.80;;;;;;;33.81;51.03;101180.34;109590;1240;63808;-78
2023/08/20 09:58:03;;;;;;;13.20;6.40;;;;;;;33.90;50.44;101179.86;109513;1241;61624;-79
2023/08/20 10:00:33;;;;;;;7.40;5.30;;;;;;;34.13;47.69;101180.17;109496;1240;59776;-79
2023/08/20 10:03:02;;;;;;;8.20;5.40;;;;;;;34.16;47.37;101174.39;109525;1240;72485;-79
2023/08/20 10:05:33;;;;;;;6.20;5.60;;;;;;;34.31;46.98;101177.62;109485;1241;58315;-78
2023/08/20 10:08:02;;;;;;;9.30;5.70;;;;;;;34.22;48.02;101174.55;109609;1241;57708;-78
2023/08/20 10:10:31;;;;;;;9.50;6.00;;;;;;;34.43;47.48;101172.11;109589;1241;74267;-78
2023/08/20 10:13:00;;;;;;;9.10;5.50;;;;;;;34.60;47.64;101178.27;109620;1240;72432;-78
2023/08/20 10:15:31;;;;;;;7.10;5.50;;;;;;;34.73;47.26;101173.81;109642;1241;60929;-78
2023/08/20 10:18:00;;;;;;;13.70;5.60;;;;;;;34.80;47.08;101167.73;109546;1241;64621;-77
2023/08/20 10:20:32;;;;;;;7.20;5.00;;;;;;;34.76;47.10;101168.40;109540;1244;58630;-77
2023/08/20 10:23:03;;;;;;;;;;;;;;;34.81;46.27;101167.30;109521;1241;57810;-78
2023/08/20 10:25:41;;;;;;;7.40;5.50;;;;;;;34.75;46.66;101165.79;109656;1241;64701;-77
2023/08/20 10:28:25;;;;;;;8.90;5.00;;;;;;;34.91;46.53;101165.48;109553;1241;61183;-79
2023/08/20 10:31:08;;;;;;;6.50;5.90;;;;;;;35.27;45.63;101161.34;109577;1241;61691;-77
2023/08/20 10:33:52;;;;;;;6.70;5.00;;;;;;;35.53;45.40;101163.64;109529;1241;65564;-78
2023/08/20 10:36:28;;;;;;;8.00;5.00;;;;;;;36.11;44.81;101161.41;109478;1244;61858;-78
2023/08/20 10:38:58;;;;;;;8.90;5.50;;;;;;;36.57;43.86;101161.92;109592;1241;62055;-78
2023/08/20 10:41:28;;;;;;;8.40;5.30;;;;;;;36.86;42.05;101155.33;109500;1240;74765;-78
2023/08/20 10:44:00;;;;;;;8.50;5.20;;;;;;;36.61;41.36;101156.82;109679;1240;61775;-78
2023/08/20 10:46:34;;;;;;;8.40;5.30;;;;;;;36.52;40.71;101158.13;109752;1240;58970;-78
2023/08/20 10:49:03;;;;;;;8.20;5.40;;;;;;;36.45;40.50;101155.30;109732;1240;63310;-78
2023/08/20 10:51:36;;;;;;;5.60;5.00;;;;;;;36.53;40.09;101155.46;109809;1241;58285;-78
2023/08/20 10:54:09;;;;;;;5.50;4.80;;;;;;;36.46;40.53;101151.64;109603;1240;60328;-78
2023/08/20 10:57:01;;;;;;;8.40;5.10;;;;;;;36.85;39.64;101147.86;109731;1241;75012;-78
2023/08/20 10:59:30;;;;;;;6.10;5.50;;;;;;;37.20;39.59;101151.47;109695;1241;61381;-79
2023/08/20 11:02:00;;;;;;;8.00;5.30;;;;;;;37.28;39.43;101150.48;109793;1240;59785;-78
2023/08/20 11:04:34;;;;;;;5.60;5.00;;;;;;;37.07;38.90;101148.62;109569;1241;73006;-78
2023/08/20 11:07:04;;;;;;;7.40;5.10;;;;;;;36.87;38.83;101142.52;109658;1242;58344;-78
2023/08/20 11:09:33;;;;;;;8.00;5.20;;;;;;;37.24;38.65;101142.96;109593;1241;57697;-77
2023/08/20 11:12:02;;;;;;;6.90;4.70;;;;;;;37.54;37.96;101135.48;109822;1240;72184;-77
2023/08/20 11:14:30;;;;;;;8.00;5.40;;;;;;;38.17;36.99;101133.84;109782;1240;71811;-77
2023/08/20 11:16:59;;;;;;;7.30;4.70;;;;;;;37.75;36.57;101129.02;109761;1241;59945;-77
2023/08/20 11:19:28;;;;;;;8.40;4.40;;;;;;;38.45;36.14;101125.85;109753;1241;63093;-77